sensor_id;sensor_type;location;lat;lon;timestamp;P1;durP1;ratioP1;P2;durP2;ratioP2
54157;SDS011;40065;49.894;10.358;2022-12-10T00:03:15;21.27;;;11.85;;
54157;SDS011;40065;49.894;10.358;2022-12-10T00:08:17;24.95;;;13.05;;
54157;SDS011;40065;49.894;10.358;2022-12-10T00:13:19;22.35;;;11.68;;
54157;SDS011;40065;49.894;10.358;2022-12-10T00:18:20;24.92;;;13.10;;
54157;SDS011;40065;49.894;10.358;2022-12-10T00:23:22;27.38;;;13.65;;
54157;SDS011;40065;49.894;10.358;2022-12-10T00:28:24;20.33;;;11.20;;
54157;SDS011;40065;49.894;10.358;2022-12-10T00:33:26;26.42;;;13.88;;
54157;SDS011;40065;49.894;10.358;2022-12-10T00:38:28;22.50;;;11.93;;
54157;SDS011;40065;49.894;10.358;2022-12-10T00:43:30;26.20;;;13.93;;
54157;SDS011;40065;49.894;10.358;2022-12-10T00:48:32;27.95;;;13.63;;
54157;SDS011;40065;49.894;10.358;2022-12-10T00:53:35;21.45;;;11.57;;
54157;SDS011;40065;49.894;10.358;2022-12-10T00:58:39;21.17;;;11.73;;
54157;SDS011;40065;49.894;10.358;2022-12-10T01:03:42;22.95;;;12.05;;
54157;SDS011;40065;49.894;10.358;2022-12-10T01:08:45;22.45;;;11.55;;
54157;SDS011;40065;49.894;10.358;2022-12-10T01:13:48;23.65;;;12.55;;
54157;SDS011;40065;49.894;10.358;2022-12-10T01:18:56;23.10;;;12.43;;
54157;SDS011;40065;49.894;10.358;2022-12-10T01:23:59;24.63;;;12.80;;
54157;SDS011;40065;49.894;10.358;2022-12-10T01:29:01;27.45;;;14.00;;
54157;SDS011;40065;49.894;10.358;2022-12-10T01:34:04;28.92;;;14.30;;
54157;SDS011;40065;49.894;10.358;2022-12-10T01:39:09;25.33;;;13.53;;
54157;SDS011;40065;49.894;10.358;2022-12-10T01:49:18;21.02;;;10.98;;
54157;SDS011;40065;49.894;10.358;2022-12-10T01:54:25;23.88;;;12.55;;
54157;SDS011;40065;49.894;10.358;2022-12-10T01:59:29;20.67;;;11.38;;
54157;SDS011;40065;49.894;10.358;2022-12-10T02:04:34;21.75;;;11.52;;
54157;SDS011;40065;49.894;10.358;2022-12-10T02:10:09;22.67;;;12.25;;
54157;SDS011;40065;49.894;10.358;2022-12-10T02:15:22;23.52;;;11.80;;
54157;SDS011;40065;49.894;10.358;2022-12-10T02:20:35;23.02;;;11.88;;
54157;SDS011;40065;49.894;10.358;2022-12-10T02:25:46;21.05;;;10.68;;
54157;SDS011;40065;49.894;10.358;2022-12-10T02:30:50;21.23;;;11.15;;
54157;SDS011;40065;49.894;10.358;2022-12-10T02:35:54;21.08;;;11.65;;
54157;SDS011;40065;49.894;10.358;2022-12-10T02:40:59;23.33;;;12.02;;
54157;SDS011;40065;49.894;10.358;2022-12-10T02:46:06;21.05;;;10.55;;
54157;SDS011;40065;49.894;10.358;2022-12-10T02:51:09;22.83;;;12.10;;
54157;SDS011;40065;49.894;10.358;2022-12-10T02:56:20;23.35;;;12.20;;
54157;SDS011;40065;49.894;10.358;2022-12-10T03:01:40;24.92;;;12.15;;
54157;SDS011;40065;49.894;10.358;2022-12-10T03:06:56;26.88;;;13.68;;
54157;SDS011;40065;49.894;10.358;2022-12-10T03:12:07;22.65;;;11.57;;
54157;SDS011;40065;49.894;10.358;2022-12-10T03:17:22;24.40;;;11.45;;
54157;SDS011;40065;49.894;10.358;2022-12-10T03:22:24;23.02;;;12.20;;
54157;SDS011;40065;49.894;10.358;2022-12-10T03:27:27;23.58;;;12.18;;
54157;SDS011;40065;49.894;10.358;2022-12-10T03:32:31;26.77;;;13.20;;
54157;SDS011;40065;49.894;10.358;2022-12-10T03:37:33;24.48;;;12.63;;
54157;SDS011;40065;49.894;10.358;2022-12-10T03:42:36;27.20;;;13.25;;
54157;SDS011;40065;49.894;10.358;2022-12-10T03:47:38;25.20;;;13.65;;
54157;SDS011;40065;49.894;10.358;2022-12-10T03:52:41;24.63;;;12.57;;
54157;SDS011;40065;49.894;10.358;2022-12-10T03:57:43;25.48;;;12.73;;
54157;SDS011;40065;49.894;10.358;2022-12-10T04:02:45;25.73;;;12.57;;
54157;SDS011;40065;49.894;10.358;2022-12-10T04:07:46;25.17;;;12.55;;
54157;SDS011;40065;49.894;10.358;2022-12-10T04:12:48;23.13;;;12.52;;
54157;SDS011;40065;49.894;10.358;2022-12-10T04:18:10;24.55;;;13.07;;
54157;SDS011;40065;49.894;10.358;2022-12-10T04:23:12;27.60;;;14.05;;
54157;SDS011;40065;49.894;10.358;2022-12-10T04:28:32;25.58;;;13.07;;
54157;SDS011;40065;49.894;10.358;2022-12-10T04:33:34;22.45;;;12.55;;
54157;SDS011;40065;49.894;10.358;2022-12-10T04:38:36;25.25;;;13.02;;
54157;SDS011;40065;49.894;10.358;2022-12-10T04:43:37;23.35;;;13.02;;
54157;SDS011;40065;49.894;10.358;2022-12-10T04:48:39;27.40;;;14.45;;
54157;SDS011;40065;49.894;10.358;2022-12-10T04:53:41;25.13;;;14.10;;
54157;SDS011;40065;49.894;10.358;2022-12-10T04:58:43;32.65;;;16.15;;
54157;SDS011;40065;49.894;10.358;2022-12-10T05:03:44;29.90;;;15.52;;
54157;SDS011;40065;49.894;10.358;2022-12-10T05:08:46;27.42;;;14.68;;
54157;SDS011;40065;49.894;10.358;2022-12-10T05:13:48;21.98;;;12.23;;
54157;SDS011;40065;49.894;10.358;2022-12-10T05:18:50;28.00;;;13.85;;
54157;SDS011;40065;49.894;10.358;2022-12-10T05:23:52;24.75;;;12.98;;
54157;SDS011;40065;49.894;10.358;2022-12-10T05:28:54;25.90;;;13.60;;
54157;SDS011;40065;49.894;10.358;2022-12-10T05:33:57;27.50;;;14.40;;
54157;SDS011;40065;49.894;10.358;2022-12-10T05:38:59;24.85;;;13.13;;
54157;SDS011;40065;49.894;10.358;2022-12-10T05:44:01;25.92;;;14.40;;
54157;SDS011;40065;49.894;10.358;2022-12-10T05:49:04;25.65;;;13.13;;
54157;SDS011;40065;49.894;10.358;2022-12-10T05:54:06;26.10;;;13.68;;
54157;SDS011;40065;49.894;10.358;2022-12-10T05:59:10;23.55;;;12.95;;
54157;SDS011;40065;49.894;10.358;2022-12-10T06:04:17;26.52;;;13.02;;
54157;SDS011;40065;49.894;10.358;2022-12-10T06:09:19;25.42;;;13.70;;
54157;SDS011;40065;49.894;10.358;2022-12-10T06:14:21;23.05;;;12.60;;
54157;SDS011;40065;49.894;10.358;2022-12-10T06:19:23;25.25;;;13.43;;
54157;SDS011;40065;49.894;10.358;2022-12-10T06:24:24;28.20;;;14.00;;
54157;SDS011;40065;49.894;10.358;2022-12-10T06:29:26;28.30;;;14.00;;
54157;SDS011;40065;49.894;10.358;2022-12-10T06:34:28;25.85;;;14.68;;
54157;SDS011;40065;49.894;10.358;2022-12-10T06:39:30;28.20;;;14.80;;
54157;SDS011;40065;49.894;10.358;2022-12-10T06:44:31;30.00;;;15.93;;
54157;SDS011;40065;49.894;10.358;2022-12-10T06:49:33;30.77;;;16.00;;
54157;SDS011;40065;49.894;10.358;2022-12-10T06:54:35;30.98;;;16.00;;
54157;SDS011;40065;49.894;10.358;2022-12-10T06:59:37;29.27;;;15.60;;
54157;SDS011;40065;49.894;10.358;2022-12-10T07:04:39;31.17;;;16.33;;
54157;SDS011;40065;49.894;10.358;2022-12-10T07:09:40;28.00;;;14.90;;
54157;SDS011;40065;49.894;10.358;2022-12-10T07:14:42;29.90;;;15.18;;
54157;SDS011;40065;49.894;10.358;2022-12-10T07:19:44;30.70;;;16.55;;
54157;SDS011;40065;49.894;10.358;2022-12-10T07:24:47;26.67;;;14.35;;
54157;SDS011;40065;49.894;10.358;2022-12-10T07:29:49;26.67;;;14.30;;
54157;SDS011;40065;49.894;10.358;2022-12-10T07:34:51;27.83;;;14.70;;
54157;SDS011;40065;49.894;10.358;2022-12-10T07:39:53;25.73;;;13.43;;
54157;SDS011;40065;49.894;10.358;2022-12-10T07:44:55;32.95;;;16.25;;
54157;SDS011;40065;49.894;10.358;2022-12-10T07:49:57;31.85;;;15.50;;
54157;SDS011;40065;49.894;10.358;2022-12-10T07:54:59;36.58;;;17.40;;
54157;SDS011;40065;49.894;10.358;2022-12-10T08:00:01;36.22;;;16.77;;
54157;SDS011;40065;49.894;10.358;2022-12-10T08:05:12;35.63;;;17.30;;
54157;SDS011;40065;49.894;10.358;2022-12-10T08:10:13;30.98;;;15.38;;
54157;SDS011;40065;49.894;10.358;2022-12-10T08:15:15;31.08;;;16.00;;
54157;SDS011;40065;49.894;10.358;2022-12-10T08:20:17;32.70;;;17.73;;
54157;SDS011;40065;49.894;10.358;2022-12-10T08:25:19;31.10;;;17.08;;
54157;SDS011;40065;49.894;10.358;2022-12-10T08:30:20;28.02;;;15.15;;
54157;SDS011;40065;49.894;10.358;2022-12-10T08:35:22;29.38;;;15.98;;
54157;SDS011;40065;49.894;10.358;2022-12-10T08:40:24;32.35;;;16.55;;
54157;SDS011;40065;49.894;10.358;2022-12-10T08:45:26;32.13;;;16.58;;
54157;SDS011;40065;49.894;10.358;2022-12-10T08:50:28;33.15;;;17.80;;
54157;SDS011;40065;49.894;10.358;2022-12-10T08:55:29;34.78;;;18.02;;
54157;SDS011;40065;49.894;10.358;2022-12-10T09:00:31;25.50;;;14.90;;
54157;SDS011;40065;49.894;10.358;2022-12-10T09:05:33;30.67;;;17.90;;
54157;SDS011;40065;49.894;10.358;2022-12-10T09:10:36;28.98;;;16.63;;
54157;SDS011;40065;49.894;10.358;2022-12-10T09:15:38;24.35;;;15.18;;
54157;SDS011;40065;49.894;10.358;2022-12-10T09:20:40;32.25;;;17.25;;
54157;SDS011;40065;49.894;10.358;2022-12-10T09:25:42;32.38;;;17.85;;
54157;SDS011;40065;49.894;10.358;2022-12-10T09:30:44;118.40;;;20.02;;
54157;SDS011;40065;49.894;10.358;2022-12-10T09:35:47;31.85;;;15.30;;
54157;SDS011;40065;49.894;10.358;2022-12-10T09:45:59;32.80;;;18.13;;
54157;SDS011;40065;49.894;10.358;2022-12-10T09:51:12;32.05;;;18.52;;
54157;SDS011;40065;49.894;10.358;2022-12-10T09:56:22;27.83;;;15.65;;
54157;SDS011;40065;49.894;10.358;2022-12-10T10:01:27;20.77;;;13.40;;
54157;SDS011;40065;49.894;10.358;2022-12-10T10:06:32;22.15;;;14.05;;
54157;SDS011;40065;49.894;10.358;2022-12-10T10:11:34;19.58;;;12.20;;
54157;SDS011;40065;49.894;10.358;2022-12-10T10:16:39;18.77;;;11.90;;
54157;SDS011;40065;49.894;10.358;2022-12-10T10:21:48;15.63;;;10.98;;
54157;SDS011;40065;49.894;10.358;2022-12-10T10:26:53;17.75;;;11.80;;
54157;SDS011;40065;49.894;10.358;2022-12-10T10:33:00;20.08;;;12.70;;
54157;SDS011;40065;49.894;10.358;2022-12-10T10:37:42;19.48;;;12.52;;
54157;SDS011;40065;49.894;10.358;2022-12-10T10:42:44;23.65;;;14.90;;
54157;SDS011;40065;49.894;10.358;2022-12-10T10:47:46;22.02;;;12.75;;
54157;SDS011;40065;49.894;10.358;2022-12-10T10:52:48;22.67;;;13.68;;
54157;SDS011;40065;49.894;10.358;2022-12-10T10:57:50;23.35;;;14.40;;
54157;SDS011;40065;49.894;10.358;2022-12-10T11:02:53;25.58;;;14.02;;
54157;SDS011;40065;49.894;10.358;2022-12-10T11:08:05;21.13;;;12.35;;
54157;SDS011;40065;49.894;10.358;2022-12-10T11:13:33;26.42;;;14.82;;
54157;SDS011;40065;49.894;10.358;2022-12-10T11:23:43;22.48;;;12.77;;
54157;SDS011;40065;49.894;10.358;2022-12-10T11:44:55;21.33;;;11.32;;
54157;SDS011;40065;49.894;10.358;2022-12-10T11:50:53;27.67;;;14.70;;
54157;SDS011;40065;49.894;10.358;2022-12-10T12:06:18;30.08;;;14.95;;
54157;SDS011;40065;49.894;10.358;2022-12-10T12:11:49;31.17;;;17.58;;
54157;SDS011;40065;49.894;10.358;2022-12-10T12:17:02;28.48;;;15.50;;
54157;SDS011;40065;49.894;10.358;2022-12-10T12:22:26;27.25;;;14.02;;
54157;SDS011;40065;49.894;10.358;2022-12-10T12:27:34;29.23;;;15.77;;
54157;SDS011;40065;49.894;10.358;2022-12-10T12:53:55;25.80;;;12.88;;
54157;SDS011;40065;49.894;10.358;2022-12-10T12:59:06;25.77;;;13.18;;
54157;SDS011;40065;49.894;10.358;2022-12-10T13:04:37;31.88;;;15.32;;
54157;SDS011;40065;49.894;10.358;2022-12-10T13:09:46;31.50;;;16.35;;
54157;SDS011;40065;49.894;10.358;2022-12-10T13:14:56;28.13;;;14.32;;
54157;SDS011;40065;49.894;10.358;2022-12-10T13:26:16;23.55;;;13.10;;
54157;SDS011;40065;49.894;10.358;2022-12-10T13:36:23;24.48;;;12.68;;
54157;SDS011;40065;49.894;10.358;2022-12-10T13:41:32;25.83;;;13.07;;
54157;SDS011;40065;49.894;10.358;2022-12-10T13:52:14;23.17;;;13.37;;
54157;SDS011;40065;49.894;10.358;2022-12-10T14:07:46;23.40;;;12.73;;
54157;SDS011;40065;49.894;10.358;2022-12-10T14:12:51;21.23;;;12.13;;
54157;SDS011;40065;49.894;10.358;2022-12-10T14:17:59;25.80;;;13.30;;
54157;SDS011;40065;49.894;10.358;2022-12-10T14:23:23;22.83;;;11.43;;
54157;SDS011;40065;49.894;10.358;2022-12-10T14:28:49;18.15;;;10.52;;
54157;SDS011;40065;49.894;10.358;2022-12-10T14:33:57;23.88;;;12.70;;
54157;SDS011;40065;49.894;10.358;2022-12-10T14:39:03;30.67;;;14.68;;
54157;SDS011;40065;49.894;10.358;2022-12-10T14:44:12;37.42;;;17.92;;
54157;SDS011;40065;49.894;10.358;2022-12-10T14:49:20;26.30;;;13.77;;
54157;SDS011;40065;49.894;10.358;2022-12-10T14:54:29;31.52;;;16.13;;
54157;SDS011;40065;49.894;10.358;2022-12-10T14:59:41;26.92;;;15.98;;
54157;SDS011;40065;49.894;10.358;2022-12-10T15:04:47;26.33;;;13.98;;
54157;SDS011;40065;49.894;10.358;2022-12-10T15:09:50;19.75;;;11.40;;
54157;SDS011;40065;49.894;10.358;2022-12-10T15:14:55;17.73;;;9.93;;
54157;SDS011;40065;49.894;10.358;2022-12-10T15:19:58;19.95;;;10.18;;
54157;SDS011;40065;49.894;10.358;2022-12-10T15:25:09;17.83;;;9.63;;
54157;SDS011;40065;49.894;10.358;2022-12-10T15:30:24;16.98;;;9.68;;
54157;SDS011;40065;49.894;10.358;2022-12-10T15:35:39;16.42;;;9.82;;
54157;SDS011;40065;49.894;10.358;2022-12-10T15:40:40;18.35;;;10.52;;
54157;SDS011;40065;49.894;10.358;2022-12-10T15:45:42;20.23;;;11.23;;
54157;SDS011;40065;49.894;10.358;2022-12-10T15:50:44;21.27;;;11.48;;
54157;SDS011;40065;49.894;10.358;2022-12-10T15:55:46;21.00;;;12.00;;
54157;SDS011;40065;49.894;10.358;2022-12-10T16:00:48;18.15;;;10.75;;
54157;SDS011;40065;49.894;10.358;2022-12-10T16:05:50;31.45;;;14.25;;
54157;SDS011;40065;49.894;10.358;2022-12-10T16:10:52;20.83;;;10.50;;
54157;SDS011;40065;49.894;10.358;2022-12-10T16:16:05;18.48;;;10.18;;
54157;SDS011;40065;49.894;10.358;2022-12-10T16:21:09;17.27;;;9.43;;
54157;SDS011;40065;49.894;10.358;2022-12-10T16:26:15;16.02;;;8.48;;
54157;SDS011;40065;49.894;10.358;2022-12-10T16:31:20;16.92;;;9.73;;
54157;SDS011;40065;49.894;10.358;2022-12-10T16:36:22;28.77;;;14.27;;
54157;SDS011;40065;49.894;10.358;2022-12-10T16:41:24;19.30;;;11.20;;
54157;SDS011;40065;49.894;10.358;2022-12-10T16:46:26;18.95;;;10.75;;
54157;SDS011;40065;49.894;10.358;2022-12-10T16:51:28;12.52;;;7.68;;
54157;SDS011;40065;49.894;10.358;2022-12-10T16:56:31;14.05;;;7.82;;
54157;SDS011;40065;49.894;10.358;2022-12-10T17:01:33;16.40;;;9.02;;
54157;SDS011;40065;49.894;10.358;2022-12-10T17:06:36;13.43;;;8.32;;
54157;SDS011;40065;49.894;10.358;2022-12-10T17:11:38;13.75;;;8.95;;
54157;SDS011;40065;49.894;10.358;2022-12-10T17:16:50;24.58;;;12.80;;
54157;SDS011;40065;49.894;10.358;2022-12-10T17:21:53;22.48;;;14.00;;
54157;SDS011;40065;49.894;10.358;2022-12-10T17:26:57;22.50;;;13.77;;
54157;SDS011;40065;49.894;10.358;2022-12-10T17:32:03;19.98;;;12.50;;
54157;SDS011;40065;49.894;10.358;2022-12-10T17:37:13;23.45;;;13.98;;
54157;SDS011;40065;49.894;10.358;2022-12-10T17:42:19;21.38;;;11.98;;
54157;SDS011;40065;49.894;10.358;2022-12-10T17:47:22;25.90;;;12.93;;
54157;SDS011;40065;49.894;10.358;2022-12-10T17:52:25;24.80;;;12.13;;
54157;SDS011;40065;49.894;10.358;2022-12-10T17:57:27;22.52;;;12.07;;
54157;SDS011;40065;49.894;10.358;2022-12-10T18:02:29;33.13;;;14.43;;
54157;SDS011;40065;49.894;10.358;2022-12-10T18:07:31;32.58;;;13.93;;
54157;SDS011;40065;49.894;10.358;2022-12-10T18:12:33;27.02;;;14.20;;
54157;SDS011;40065;49.894;10.358;2022-12-10T18:17:35;18.48;;;10.30;;
54157;SDS011;40065;49.894;10.358;2022-12-10T18:22:36;19.75;;;10.40;;
54157;SDS011;40065;49.894;10.358;2022-12-10T18:27:38;16.27;;;9.15;;
54157;SDS011;40065;49.894;10.358;2022-12-10T18:32:40;17.23;;;9.95;;
54157;SDS011;40065;49.894;10.358;2022-12-10T18:37:42;18.70;;;10.13;;
54157;SDS011;40065;49.894;10.358;2022-12-10T18:42:51;17.17;;;9.55;;
54157;SDS011;40065;49.894;10.358;2022-12-10T18:47:52;15.43;;;8.75;;
54157;SDS011;40065;49.894;10.358;2022-12-10T18:52:58;22.70;;;11.88;;
54157;SDS011;40065;49.894;10.358;2022-12-10T18:58:00;23.73;;;10.20;;
54157;SDS011;40065;49.894;10.358;2022-12-10T19:03:07;20.05;;;10.30;;
54157;SDS011;40065;49.894;10.358;2022-12-10T19:08:10;17.70;;;9.52;;
54157;SDS011;40065;49.894;10.358;2022-12-10T19:13:13;15.95;;;9.43;;
54157;SDS011;40065;49.894;10.358;2022-12-10T19:18:15;21.30;;;11.82;;
54157;SDS011;40065;49.894;10.358;2022-12-10T19:23:17;20.48;;;11.52;;
54157;SDS011;40065;49.894;10.358;2022-12-10T19:28:18;20.08;;;10.95;;
54157;SDS011;40065;49.894;10.358;2022-12-10T19:33:20;19.02;;;11.65;;
54157;SDS011;40065;49.894;10.358;2022-12-10T19:38:22;22.10;;;12.13;;
54157;SDS011;40065;49.894;10.358;2022-12-10T19:43:24;19.45;;;10.75;;
54157;SDS011;40065;49.894;10.358;2022-12-10T19:48:26;22.83;;;11.45;;
54157;SDS011;40065;49.894;10.358;2022-12-10T19:53:35;19.52;;;10.45;;
54157;SDS011;40065;49.894;10.358;2022-12-10T19:58:38;20.15;;;10.90;;
54157;SDS011;40065;49.894;10.358;2022-12-10T20:03:40;19.00;;;10.65;;
54157;SDS011;40065;49.894;10.358;2022-12-10T20:08:42;19.60;;;10.70;;
54157;SDS011;40065;49.894;10.358;2022-12-10T20:13:43;17.15;;;9.43;;
54157;SDS011;40065;49.894;10.358;2022-12-10T20:18:45;15.35;;;8.88;;
54157;SDS011;40065;49.894;10.358;2022-12-10T20:23:49;16.35;;;9.73;;
54157;SDS011;40065;49.894;10.358;2022-12-10T20:28:51;22.23;;;13.32;;
54157;SDS011;40065;49.894;10.358;2022-12-10T20:33:52;22.52;;;12.75;;
54157;SDS011;40065;49.894;10.358;2022-12-10T20:38:54;21.73;;;12.45;;
54157;SDS011;40065;49.894;10.358;2022-12-10T20:43:56;27.25;;;14.57;;
54157;SDS011;40065;49.894;10.358;2022-12-10T20:48:58;24.02;;;13.63;;
54157;SDS011;40065;49.894;10.358;2022-12-10T20:54:00;19.25;;;11.55;;
54157;SDS011;40065;49.894;10.358;2022-12-10T20:59:02;25.30;;;14.88;;
54157;SDS011;40065;49.894;10.358;2022-12-10T21:04:04;21.45;;;12.38;;
54157;SDS011;40065;49.894;10.358;2022-12-10T21:09:06;23.55;;;12.88;;
54157;SDS011;40065;49.894;10.358;2022-12-10T21:14:08;24.67;;;14.38;;
54157;SDS011;40065;49.894;10.358;2022-12-10T21:19:29;22.17;;;12.00;;
54157;SDS011;40065;49.894;10.358;2022-12-10T21:24:31;20.13;;;11.88;;
54157;SDS011;40065;49.894;10.358;2022-12-10T21:29:33;22.80;;;13.13;;
54157;SDS011;40065;49.894;10.358;2022-12-10T21:34:35;21.35;;;13.05;;
54157;SDS011;40065;49.894;10.358;2022-12-10T21:39:36;21.08;;;12.13;;
54157;SDS011;40065;49.894;10.358;2022-12-10T21:44:38;19.67;;;11.77;;
54157;SDS011;40065;49.894;10.358;2022-12-10T21:49:40;23.05;;;12.73;;
54157;SDS011;40065;49.894;10.358;2022-12-10T21:54:42;25.08;;;14.18;;
54157;SDS011;40065;49.894;10.358;2022-12-10T21:59:44;25.42;;;14.07;;
54157;SDS011;40065;49.894;10.358;2022-12-10T22:04:46;24.08;;;13.85;;
54157;SDS011;40065;49.894;10.358;2022-12-10T22:09:48;25.25;;;14.60;;
54157;SDS011;40065;49.894;10.358;2022-12-10T22:14:49;24.95;;;13.65;;
54157;SDS011;40065;49.894;10.358;2022-12-10T22:19:51;27.77;;;14.88;;
54157;SDS011;40065;49.894;10.358;2022-12-10T22:24:53;27.08;;;14.07;;
54157;SDS011;40065;49.894;10.358;2022-12-10T22:29:54;27.83;;;15.35;;
54157;SDS011;40065;49.894;10.358;2022-12-10T22:34:56;36.38;;;18.33;;
54157;SDS011;40065;49.894;10.358;2022-12-10T22:39:58;33.53;;;16.92;;
54157;SDS011;40065;49.894;10.358;2022-12-10T22:45:06;41.60;;;21.33;;
54157;SDS011;40065;49.894;10.358;2022-12-10T22:50:10;32.00;;;16.88;;
54157;SDS011;40065;49.894;10.358;2022-12-10T22:55:12;28.23;;;15.05;;
54157;SDS011;40065;49.894;10.358;2022-12-10T23:00:13;24.92;;;13.48;;
54157;SDS011;40065;49.894;10.358;2022-12-10T23:05:19;23.80;;;13.27;;
54157;SDS011;40065;49.894;10.358;2022-12-10T23:10:22;25.95;;;14.57;;
54157;SDS011;40065;49.894;10.358;2022-12-10T23:15:25;19.88;;;11.95;;
54157;SDS011;40065;49.894;10.358;2022-12-10T23:20:27;20.38;;;11.45;;
54157;SDS011;40065;49.894;10.358;2022-12-10T23:25:31;22.40;;;12.88;;
54157;SDS011;40065;49.894;10.358;2022-12-10T23:30:33;30.17;;;15.50;;
54157;SDS011;40065;49.894;10.358;2022-12-10T23:35:39;29.25;;;15.50;;
54157;SDS011;40065;49.894;10.358;2022-12-10T23:40:41;37.72;;;17.48;;
54157;SDS011;40065;49.894;10.358;2022-12-10T23:45:44;30.73;;;16.58;;
54157;SDS011;40065;49.894;10.358;2022-12-10T23:50:46;32.58;;;16.60;;
54157;SDS011;40065;49.894;10.358;2022-12-10T23:55:48;31.40;;;16.88;;
